Weather reports worldwide

Advertisment
Motril, Spain (8485): temperature & dewpoint: 06.07.2020 14:00:00 - 12.07.2020 14:00:00 (CEST)Motril, Spain (8485): wind speed & gusts: 06.07.2020 14:00:00 - 12.07.2020 14:00:00 (CEST)Motril, Spain (8485): wind direction: 06.07.2020 14:00:00 - 12.07.2020 14:00:00 (CEST)Motril, Spain (8485): reduced air pressure: 06.07.2020 14:00:00 - 12.07.2020 14:00:00 (CEST)Motril, Spain (8485): precipitation: 06.07.2020 14:00:00 - 12.07.2020 14:00:00 (CEST)
Date & Time tt [°C] td [°C] ff [km/h] ff [kn] fx [km/h] fx [kn] dd ppp [hPa] rr [mm]
12.07.2020 14:00:00 28,2 20,7 24 13 45 24 ESE 1014,2 -
12.07.2020 13:00:00 27,5 20,6 29 16 48 26 ESE 1014,7 0,0
12.07.2020 12:00:00 26,6 20,7 30 16 45 24 ESE 1016,1 0,0
12.07.2020 11:00:00 25,4 21,1 21 11 29 16 SE 1017,2 0,0
12.07.2020 10:00:00 25,2 22,7 7 4 12 6 S 1016,6 0,0
12.07.2020 09:00:00 25,4 24,0 1 0 22 12 ESE 1016,1 0,0
12.07.2020 08:00:00 23,4 22,9 9 5 30 16 W 1016,4 -
12.07.2020 07:00:00 24,8 21,9 10 6 26 14 SSW 1014,7 0,0
12.07.2020 06:00:00 24,0 22,1 2 1 18 10 ESE 1012,7 0,0
12.07.2020 05:00:00 24,3 22,7 9 5 24 13 WSW 1014,2 0,0
12.07.2020 04:00:00 23,9 23,2 3 2 21 12 NW 1014,3 0,0
12.07.2020 03:00:00 23,9 23,2 6 3 21 11 SSW 1016,4 0,0
12.07.2020 02:00:00 23,9 22,9 9 5 16 9 N 1014,8 -
12.07.2020 01:00:00 24,3 22,9 6 3 18 10 W 1017,3 0,0
12.07.2020 00:00:00 24,2 22,8 2 1 14 7 W 1016,5 0,0
11.07.2020 23:00:00 24,3 23,3 9 5 18 10 WSW 1016,2 0,0
11.07.2020 22:00:00 24,5 23,1 5 3 18 10 W 1014,5 0,0
11.07.2020 21:00:00 24,6 23,0 10 6 22 12 S 1014,4 0,0
11.07.2020 20:00:00 25,5 22,8 11 6 33 18 SE 1014,4 -
11.07.2020 19:00:00 26,7 21,9 22 12 34 19 ESE 1013,5 0,0
11.07.2020 18:00:00 27,2 21,7 23 13 37 20 ESE 1013,9 0,0
11.07.2020 17:00:00 27,9 22,1 22 12 37 20 ESE 1014,1 0,0
11.07.2020 16:00:00 26,7 22,7 24 13 36 19 ESE 1015,3 0,0
11.07.2020 15:00:00 25,7 23,0 26 14 35 19 SE 1015,9 0,0
11.07.2020 14:00:00 26,1 23,4 23 12 31 17 SE 1016,0 -
11.07.2020 13:00:00 25,4 23,3 8 5 15 8 SSW 1016,2 0,0
11.07.2020 12:00:00 26,1 23,2 11 6 23 12 SSE 1015,9 0,0
11.07.2020 11:00:00 25,9 22,6 16 9 23 12 ESE 1015,5 0,0
11.07.2020 10:00:00 25,9 22,2 13 7 18 10 SE 1015,4 0,0
11.07.2020 09:00:00 28,7 20,5 0 0 7 4 SE 1014,7 0,0
11.07.2020 08:00:00 23,2 18,8 4 2 7 4 NE 1014,4 -
11.07.2020 07:00:00 21,4 18,4 3 1 6 3 NNE 1013,7 0,0
11.07.2020 06:00:00 21,4 18,8 0 0 6 4 ENE 1013,3 0,0
11.07.2020 05:00:00 21,5 19,6 3 1 6 3 N 1013,4 0,0
11.07.2020 04:00:00 22,0 20,1 3 2 6 3 NW 1013,6 0,0
11.07.2020 03:00:00 22,3 20,6 1 0 5 3 E 1013,9 0,0
11.07.2020 02:00:00 22,9 21,7 2 1 6 3 NNW 1013,8 -
11.07.2020 01:00:00 23,3 22,1 3 1 6 4 SE 1014,3 0,0
11.07.2020 00:00:00 23,5 21,8 0 0 5 3 N 1014,1 0,0
10.07.2020 23:00:00 24,3 21,6 2 1 7 4 SSW 1013,4 0,0
10.07.2020 22:00:00 24,7 21,2 3 2 9 5 NNW 1012,9 0,0
10.07.2020 21:00:00 25,0 21,7 6 3 13 7 SSW 1012,8 0,0
10.07.2020 20:00:00 25,7 21,4 6 3 11 6 SSW 1012,4 -
10.07.2020 19:00:00 25,8 21,1 6 4 13 7 SSW 1012,6 0,0
10.07.2020 18:00:00 26,2 20,7 9 5 14 7 SSW 1012,7 0,0
10.07.2020 17:00:00 25,9 20,5 10 5 16 8 SSW 1013,3 0,0
10.07.2020 16:00:00 25,8 20,1 9 5 14 8 SSW 1013,8 0,0
10.07.2020 15:00:00 25,6 20,6 7 4 22 12 SSW 1014,5 0,0
10.07.2020 14:00:00 25,2 20,5 9 5 12 6 S 1014,8 -
10.07.2020 13:00:00 27,5 20,6 6 3 12 7 SSE 1015,1 0,0
10.07.2020 12:00:00 27,7 20,8 5 3 12 7 SE 1015,3 0,0
10.07.2020 11:00:00 24,5 17,5 9 5 13 7 SSW 1014,9 0,0
10.07.2020 10:00:00 27,5 18,2 4 2 8 4 S 1014,7 0,0
10.07.2020 09:00:00 26,5 19,6 2 1 4 2 ESE 1014,6 0,0
10.07.2020 08:00:00 21,9 18,9 1 0 4 2 E 1014,7 -
10.07.2020 07:00:00 20,4 18,0 0 0 4 2 WSW 1014,1 0,0
10.07.2020 06:00:00 20,5 17,9 0 0 4 2 N 1013,6 0,0
10.07.2020 05:00:00 20,8 18,0 3 2 4 2 NNE 1013,8 0,0
10.07.2020 04:00:00 21,4 17,8 1 0 4 2 WNW 1014,6 0,0
10.07.2020 03:00:00 21,8 18,2 2 1 5 3 ESE 1015,0 0,0
10.07.2020 02:00:00 22,0 18,8 2 1 4 2 E 1015,3 -
10.07.2020 01:00:00 23,2 18,9 3 2 5 3 ESE 1015,4 0,0
10.07.2020 00:00:00 23,7 19,4 1 1 5 3 WNW 1015,3 0,0
09.07.2020 23:00:00 24,0 19,7 3 2 4 2 SE 1014,7 0,0
09.07.2020 22:00:00 24,8 19,6 2 1 11 6 N 1014,0 0,0
09.07.2020 21:00:00 25,3 19,4 5 3 11 6 W 1013,9 0,0
09.07.2020 20:00:00 26,2 20,3 5 3 12 7 SW 1014,1 -
09.07.2020 19:00:00 25,5 21,6 9 5 13 7 SSW 1014,4 0,0
09.07.2020 18:00:00 27,2 22,4 5 3 13 7 SSE 1014,9 0,0
09.07.2020 17:00:00 27,3 22,9 6 3 13 7 S 1015,1 0,0
09.07.2020 16:00:00 25,7 23,0 7 4 17 9 SSW 1015,2 0,0
09.07.2020 15:00:00 25,5 22,2 9 5 17 9 SSW 1015,4 0,0
09.07.2020 14:00:00 25,2 21,7 9 5 16 8 SSW 1015,8 -
09.07.2020 13:00:00 25,6 21,1 9 5 16 8 SSW 1015,9 0,0
09.07.2020 12:00:00 27,2 21,0 5 3 16 9 SSE 1015,7 0,0
09.07.2020 11:00:00 26,0 20,1 7 4 14 8 SSW 1015,8 0,0
09.07.2020 10:00:00 26,8 19,6 4 2 14 8 SW 1015,6 0,0
09.07.2020 09:00:00 25,2 19,6 4 2 8 5 WSW 1015,1 0,0
09.07.2020 08:00:00 22,8 20,3 2 1 11 6 ENE 1014,9 -
09.07.2020 07:00:00 22,8 20,5 8 4 16 9 W 1014,3 0,0
09.07.2020 06:00:00 21,8 19,1 3 1 7 4 WNW 1014,0 0,0
09.07.2020 05:00:00 22,6 19,8 3 2 10 5 NW 1014,0 0,0
09.07.2020 04:00:00 23,0 20,3 3 1 9 5 W 1014,4 0,0
09.07.2020 03:00:00 22,9 20,5 2 1 6 4 ENE 1015,2 0,0
09.07.2020 02:00:00 23,3 20,8 4 2 11 6 NNW 1015,9 -
09.07.2020 01:00:00 23,7 21,2 6 3 13 7 W 1016,1 0,0
09.07.2020 00:00:00 23,9 21,4 4 2 9 5 WNW 1015,8 0,0
08.07.2020 23:00:00 24,4 20,7 3 2 8 5 SW 1015,1 0,0
08.07.2020 22:00:00 24,3 21,1 3 1 9 5 W 1014,3 0,0
08.07.2020 21:00:00 24,8 21,5 3 2 15 8 SW 1013,7 0,0
08.07.2020 20:00:00 25,1 20,8 6 3 24 13 SW 1013,5 -
08.07.2020 19:00:00 25,9 20,0 11 6 24 13 WSW 1012,9 0,0
08.07.2020 18:00:00 26,8 20,7 10 5 24 13 SW 1013,1 0,0
08.07.2020 17:00:00 26,2 20,5 15 8 53 28 SW 1013,5 0,0
08.07.2020 16:00:00 29,4 18,8 25 14 34 19 SE 1012,0 0,0
08.07.2020 15:00:00 33,4 17,9 22 12 37 20 ESE 1012,6 0,0
08.07.2020 14:00:00 32,9 17,1 24 13 37 20 ESE 1012,9 -
08.07.2020 13:00:00 31,8 17,3 26 14 36 19 ESE 1013,8 0,0
08.07.2020 12:00:00 33,5 17,6 11 6 22 12 ESE 1013,7 0,0
08.07.2020 11:00:00 32,7 19,2 1 1 11 6 W 1013,7 0,0
08.07.2020 10:00:00 29,9 18,0 4 2 9 5 NW 1013,5 0,0
08.07.2020 09:00:00 27,0 17,8 3 1 22 12 NNW 1013,5 0,0
08.07.2020 08:00:00 27,8 15,8 4 2 19 10 E 1013,0 -
08.07.2020 07:00:00 27,2 15,9 15 8 42 23 W 1012,3 0,0
08.07.2020 06:00:00 24,0 17,0 8 4 15 8 NW 1014,3 0,0
08.07.2020 05:00:00 23,4 17,4 5 3 10 6 NW 1013,0 0,0
08.07.2020 04:00:00 22,0 19,3 1 0 10 5 E 1013,3 0,0
08.07.2020 03:00:00 22,5 19,1 3 2 5 3 NW 1014,3 0,0
08.07.2020 02:00:00 22,6 19,2 1 0 6 3 NE 1014,3 -
08.07.2020 01:00:00 23,2 19,8 0 0 3 2 N 1014,4 0,0
08.07.2020 00:00:00 23,4 20,7 1 1 6 3 N 1014,3 0,0
07.07.2020 23:00:00 23,7 20,3 0 0 4 2 N 1014,6 0,0
07.07.2020 22:00:00 24,2 21,7 3 1 7 4 S 1014,2 0,0
07.07.2020 21:00:00 24,5 22,2 5 3 11 6 S 1014,1 0,0
07.07.2020 20:00:00 25,3 22,0 6 4 14 8 S 1013,6 -
07.07.2020 19:00:00 25,3 23,7 10 5 14 8 SSW 1013,6 0,0
07.07.2020 18:00:00 25,9 21,6 7 4 12 6 SSW 1014,5 0,0
07.07.2020 17:00:00 26,4 23,5 7 4 13 7 SSE 1015,0 0,0
07.07.2020 16:00:00 26,5 23,4 9 5 15 8 SSE 1015,2 0,0
07.07.2020 15:00:00 27,3 22,0 7 4 11 6 SSE 1015,4 0,0
07.07.2020 14:00:00 26,5 20,8 8 4 13 7 S 1015,9 -
07.07.2020 13:00:00 25,1 19,9 10 5 14 7 S 1015,9 0,0
07.07.2020 12:00:00 27,4 20,0 6 4 13 7 SSE 1015,9 0,0
07.07.2020 11:00:00 25,4 18,6 6 4 11 6 S 1015,8 0,0
07.07.2020 10:00:00 27,9 17,1 5 3 7 4 S 1015,6 0,0
07.07.2020 09:00:00 28,0 19,5 1 0 5 3 ESE 1015,5 0,0
07.07.2020 08:00:00 22,9 18,2 0 0 5 3 NW 1015,2 -
07.07.2020 07:00:00 21,1 16,9 3 1 5 3 NE 1014,8 0,0
07.07.2020 06:00:00 21,4 18,0 1 1 4 2 NNE 1015,0 0,0
07.07.2020 05:00:00 21,9 19,1 1 1 5 3 SW 1014,9 0,0
07.07.2020 04:00:00 21,8 18,4 5 3 8 4 NE 1015,2 0,0
07.07.2020 03:00:00 21,4 18,8 3 2 8 4 NNW 1015,7 0,0
07.07.2020 02:00:00 22,5 18,2 3 1 5 3 ESE 1016,0 -
07.07.2020 01:00:00 23,4 19,1 1 1 7 4 N 1015,8 0,0
07.07.2020 00:00:00 23,2 21,1 0 0 5 3 N 1016,1 0,0
06.07.2020 23:00:00 24,0 21,3 1 0 7 4 SSW 1016,1 0,0
06.07.2020 22:00:00 24,5 21,3 1 1 9 5 WNW 1015,4 0,0
06.07.2020 21:00:00 24,4 21,9 6 3 12 7 SSW 1015,2 0,0
06.07.2020 20:00:00 24,7 22,2 6 3 13 7 SSW 1015,2 -
06.07.2020 19:00:00 24,5 22,2 9 5 16 8 SSW 1015,7 0,0
06.07.2020 18:00:00 24,9 22,2 9 5 18 10 SSW 1016,0 0,0
06.07.2020 17:00:00 25,1 22,2 9 5 17 9 SSW 1016,5 0,0
06.07.2020 16:00:00 25,1 22,0 9 5 16 9 SSW 1016,5 0,0
06.07.2020 15:00:00 25,0 21,5 9 5 15 8 SSW 1017,1 0,0
06.07.2020 14:00:00 25,1 20,6 10 5 15 8 SSW 1017,3 -

tt = temperature
td = dewpoint
ff = wind speed
fx = gusts
dd = wind direction
ppp = reduced air pressure
rr = precipitation

Next stations